Millry, Alabama
Current Conditions -  °F | °C
As of 2:58 PM on Saturday 20 Dec 2014 (Local Time) from KMEI Reporting Station
Clear Clear  
Wind Chill: 54°   Ceiling: Unl
Heat Index: 54°   Visibility: 10mi
Dew Point: 41°   Wind: 12mph
Humidity: 62%   Direction: 50°NE
Pressure: 30.16"   Gusts: NA
Location:  31.63°N, 88.31°W
Report Text: KMEI 202058Z 05010KT 10SM CLR 12/05 A3016 RMK AO2 SLP210 T01220050 56013
Loading
Personal Weather Stations






























Interactive Weather Map New forecast layout! Learn more

10-Day Weather Forecast

Advertisements
Track Severe Weather on mobile